createdAt,value
2018-02-10T00:02:05.721Z,10.65
2018-02-10T00:04:33.259Z,10.64
2018-02-10T00:07:00.792Z,10.58
2018-02-10T00:09:28.347Z,10.63
2018-02-10T00:11:55.871Z,10.62
2018-02-10T00:14:23.402Z,10.60
2018-02-10T00:16:50.976Z,10.60
2018-02-10T00:19:18.509Z,10.59
2018-02-10T00:21:46.059Z,10.58
2018-02-10T00:24:13.606Z,10.57
2018-02-10T00:26:41.131Z,10.55
2018-02-10T00:29:08.896Z,10.54
2018-02-10T00:31:36.443Z,10.51
2018-02-10T00:34:04.116Z,10.50
2018-02-10T00:36:33.851Z,10.48
2018-02-10T00:39:01.430Z,10.49
2018-02-10T00:41:29.264Z,10.46
2018-02-10T00:43:56.779Z,10.46
2018-02-10T00:46:24.356Z,10.45
2018-02-10T00:48:51.890Z,10.44
2018-02-10T00:51:19.401Z,10.42
2018-02-10T00:53:47.280Z,10.41
2018-02-10T00:56:14.809Z,10.40
2018-02-10T00:58:42.597Z,10.38
2018-02-10T01:01:10.161Z,10.29
2018-02-10T01:03:37.699Z,10.37
2018-02-10T01:06:05.262Z,10.35
2018-02-10T01:08:32.800Z,10.34
2018-02-10T01:11:00.318Z,10.32
2018-02-10T01:13:27.854Z,10.31
2018-02-10T01:15:55.583Z,10.31
2018-02-10T01:18:23.105Z,10.28
2018-02-10T01:20:50.617Z,10.28
2018-02-10T01:23:18.180Z,10.27
2018-02-10T01:25:45.706Z,10.27
2018-02-10T01:28:13.240Z,10.27
2018-02-10T01:30:40.789Z,10.27
2018-02-10T01:33:08.315Z,10.27
2018-02-10T01:35:35.817Z,10.28
2018-02-10T01:38:03.471Z,10.30
2018-02-10T01:40:31.309Z,10.30
2018-02-10T01:42:58.843Z,10.23
2018-02-10T01:45:26.399Z,10.31
2018-02-10T01:47:53.927Z,10.32
2018-02-10T01:50:22.196Z,10.32
2018-02-10T01:52:49.739Z,10.32
2018-02-10T01:55:17.252Z,10.33
2018-02-10T01:57:44.819Z,10.34
2018-02-10T02:00:12.413Z,10.33
2018-02-10T02:02:39.935Z,10.32
2018-02-10T02:05:07.477Z,10.34
2018-02-10T02:07:35.013Z,10.35
2018-02-10T02:10:02.530Z,10.33
2018-02-10T02:12:30.065Z,10.34
2018-02-10T02:14:57.605Z,10.35
2018-02-10T02:17:25.126Z,10.36
2018-02-10T02:19:52.634Z,10.34
2018-02-10T02:22:20.199Z,10.34
2018-02-10T02:24:47.733Z,10.33
2018-02-10T02:27:15.268Z,10.33
2018-02-10T02:29:43.116Z,10.33
2018-02-10T02:32:10.653Z,10.33
2018-02-10T02:34:38.191Z,10.32
2018-02-10T02:37:05.705Z,10.31
2018-02-10T02:39:33.292Z,10.30
2018-02-10T02:42:00.819Z,10.29
2018-02-10T02:44:28.687Z,10.29
2018-02-10T02:46:56.221Z,10.29
2018-02-10T02:49:23.752Z,10.28
2018-02-10T02:51:51.274Z,10.28
2018-02-10T02:54:18.813Z,10.27
2018-02-10T02:56:46.337Z,10.25
2018-02-10T02:59:14.135Z,10.26
2018-02-10T03:01:41.724Z,10.26
2018-02-10T03:04:09.253Z,10.24
2018-02-10T03:06:36.797Z,10.26
2018-02-10T03:09:04.341Z,10.25
2018-02-10T03:11:31.866Z,10.24
2018-02-10T03:13:59.419Z,10.23
2018-02-10T03:16:26.984Z,10.14
2018-02-10T03:18:54.510Z,10.21
2018-02-10T03:21:22.034Z,10.20
2018-02-10T03:23:49.580Z,10.19
2018-02-10T03:26:17.099Z,10.18
2018-02-10T03:28:44.635Z,10.18
2018-02-10T03:31:12.173Z,10.17
2018-02-10T03:33:39.987Z,10.15
2018-02-10T03:36:07.548Z,10.15
2018-02-10T03:38:35.073Z,10.15
2018-02-10T03:41:02.619Z,10.16
2018-02-10T03:43:30.486Z,10.09
2018-02-10T03:45:58.230Z,10.15
2018-02-10T03:48:25.757Z,10.15
2018-02-10T03:50:53.639Z,10.15
2018-02-10T03:53:21.169Z,10.15
2018-02-10T03:55:49.106Z,10.15
2018-02-10T03:58:16.632Z,10.14
2018-02-10T04:00:44.191Z,10.13
2018-02-10T04:03:11.719Z,10.13
2018-02-10T04:05:39.242Z,10.12
2018-02-10T04:08:07.041Z,10.12
2018-02-10T04:10:34.621Z,10.11
2018-02-10T04:13:02.150Z,10.10
2018-02-10T04:15:29.717Z,10.10
2018-02-10T04:17:57.251Z,10.09
2018-02-10T04:20:24.816Z,10.10
2018-02-10T04:22:52.355Z,10.10
2018-02-10T04:25:19.884Z,10.11
2018-02-10T04:27:47.422Z,10.12
2018-02-10T04:30:14.970Z,10.12
2018-02-10T04:32:42.493Z,10.12
2018-02-10T04:35:10.014Z,10.13
2018-02-10T04:37:37.726Z,10.13
2018-02-10T04:40:05.241Z,10.13
2018-02-10T04:42:33.074Z,10.05
2018-02-10T04:45:00.589Z,10.13
2018-02-10T04:47:28.409Z,10.13
2018-02-10T04:49:56.339Z,10.12
2018-02-10T04:52:23.860Z,10.12
2018-02-10T04:54:51.406Z,10.12
2018-02-10T04:57:18.951Z,10.13
2018-02-10T04:59:46.487Z,10.13
2018-02-10T05:02:14.027Z,10.13
2018-02-10T05:04:41.549Z,10.12
2018-02-10T05:07:09.073Z,10.11
2018-02-10T05:09:36.599Z,10.10
2018-02-10T05:12:04.135Z,9.87
2018-02-10T05:14:31.687Z,10.09
2018-02-10T05:16:59.223Z,10.08
2018-02-10T05:19:26.769Z,10.09
2018-02-10T05:21:54.292Z,10.08
2018-02-10T05:24:21.807Z,10.08
2018-02-10T05:26:49.349Z,10.08
2018-02-10T05:29:16.878Z,10.07
2018-02-10T05:31:44.399Z,10.07
2018-02-10T05:34:11.929Z,10.07
2018-02-10T05:36:39.464Z,10.08
2018-02-10T05:39:06.984Z,10.09
2018-02-10T05:41:34.511Z,10.09
2018-02-10T05:44:02.052Z,10.09
2018-02-10T05:46:29.581Z,10.10
2018-02-10T05:48:57.149Z,10.11
2018-02-10T05:51:24.673Z,10.11
2018-02-10T05:53:52.185Z,10.15
2018-02-10T05:56:19.704Z,10.17
2018-02-10T05:58:47.221Z,10.19
2018-02-10T06:01:14.771Z,10.22
2018-02-10T06:03:42.299Z,10.23
2018-02-10T06:06:09.839Z,10.25
2018-02-10T06:08:37.397Z,10.28
2018-02-10T06:11:04.927Z,10.30
2018-02-10T06:13:32.501Z,10.32
2018-02-10T06:16:00.031Z,10.32
2018-02-10T06:18:27.556Z,10.34
2018-02-10T06:20:55.124Z,10.34
2018-02-10T06:23:22.639Z,10.34
2018-02-10T06:25:50.193Z,10.34
2018-02-10T06:28:17.737Z,10.34
2018-02-10T06:30:45.295Z,10.38
2018-02-10T06:33:12.819Z,10.41
2018-02-10T06:35:40.343Z,10.47
2018-02-10T06:38:07.894Z,10.52
2018-02-10T06:40:35.406Z,10.58
2018-02-10T06:43:02.963Z,10.67
2018-02-10T06:45:30.494Z,10.76
2018-02-10T06:47:58.036Z,10.85
2018-02-10T06:50:25.553Z,10.97
2018-02-10T06:52:53.147Z,11.08
2018-02-10T06:55:20.665Z,11.15
2018-02-10T06:57:48.201Z,11.23
2018-02-10T07:00:15.762Z,11.30
2018-02-10T07:02:43.283Z,11.38
2018-02-10T07:05:10.810Z,11.44
2018-02-10T07:07:38.351Z,11.51
2018-02-10T07:10:05.884Z,11.51
2018-02-10T07:12:33.439Z,11.58
2018-02-10T07:15:00.953Z,11.70
2018-02-10T07:17:28.474Z,11.72
2018-02-10T07:19:56.041Z,11.68
2018-02-10T07:22:23.566Z,11.66
2018-02-10T07:24:51.095Z,11.64
2018-02-10T07:27:18.615Z,11.65
2018-02-10T07:29:46.207Z,11.66
2018-02-10T07:32:13.763Z,11.52
2018-02-10T07:34:41.715Z,12.03
2018-02-10T07:37:09.546Z,12.17
2018-02-10T07:39:37.075Z,12.36
2018-02-10T07:42:04.604Z,12.40
2018-02-10T07:44:32.488Z,12.55
2018-02-10T07:47:00.042Z,13.06
2018-02-10T07:49:27.596Z,13.58
2018-02-10T07:51:55.136Z,14.08
2018-02-10T07:54:22.678Z,14.19
2018-02-10T07:56:53.840Z,14.08
2018-02-10T07:59:21.498Z,13.86
2018-02-10T08:01:49.995Z,13.72
2018-02-10T08:04:17.503Z,13.28
2018-02-10T08:06:52.361Z,12.74
2018-02-10T08:09:21.431Z,12.23
2018-02-10T08:11:48.952Z,11.82
2018-02-10T08:14:16.481Z,11.47
2018-02-10T08:16:44.010Z,11.20
2018-02-10T08:19:11.538Z,10.94
2018-02-10T08:21:39.050Z,10.93
2018-02-10T08:24:06.586Z,10.82
2018-02-10T08:26:34.137Z,10.81
2018-02-10T08:29:01.649Z,10.79
2018-02-10T08:31:29.258Z,10.81
2018-02-10T08:33:56.769Z,10.90
2018-02-10T08:36:24.299Z,10.92
2018-02-10T08:38:51.901Z,10.92
2018-02-10T08:41:19.423Z,10.97
2018-02-10T08:43:47.001Z,11.07
2018-02-10T08:46:14.530Z,11.20
2018-02-10T08:48:43.180Z,11.34
2018-02-10T08:51:10.756Z,11.48
2018-02-10T08:53:38.296Z,11.58
2018-02-10T08:56:05.964Z,11.64
2018-02-10T08:58:33.497Z,11.66
2018-02-10T09:01:01.054Z,11.39
2018-02-10T09:03:28.592Z,11.73
2018-02-10T09:05:56.133Z,11.81
2018-02-10T09:08:23.669Z,11.89
2018-02-10T09:10:51.472Z,11.93
2018-02-10T09:13:19.070Z,12.01
2018-02-10T09:15:46.700Z,12.11
2018-02-10T09:18:14.231Z,12.19
2018-02-10T09:20:42.091Z,12.44
2018-02-10T09:23:09.875Z,12.70
2018-02-10T09:25:37.431Z,12.96
2018-02-10T09:28:04.983Z,13.07
2018-02-10T09:30:32.553Z,12.92
2018-02-10T09:33:00.085Z,12.67
2018-02-10T09:35:27.920Z,12.41
2018-02-10T09:37:55.470Z,12.19
2018-02-10T09:40:23.091Z,12.16
2018-02-10T09:42:50.647Z,12.14
2018-02-10T09:45:18.171Z,12.17
2018-02-10T09:47:45.685Z,12.13
2018-02-10T09:50:13.225Z,12.18
2018-02-10T09:52:40.737Z,12.22
2018-02-10T09:55:08.259Z,12.33
2018-02-10T09:57:35.774Z,12.44
2018-02-10T10:00:06.801Z,12.53
2018-02-10T10:02:34.321Z,12.65
2018-02-10T10:05:01.869Z,12.67
2018-02-10T10:07:29.397Z,12.91
2018-02-10T10:09:56.909Z,12.94
2018-02-10T10:12:24.435Z,12.90
2018-02-10T10:14:51.969Z,12.78
2018-02-10T10:17:19.535Z,12.70
2018-02-10T10:19:47.089Z,12.61
2018-02-10T10:22:14.854Z,12.60
2018-02-10T10:24:42.401Z,12.60
2018-02-10T10:27:10.287Z,12.62
2018-02-10T10:29:37.816Z,12.65
2018-02-10T10:32:05.397Z,12.66
2018-02-10T10:34:32.933Z,12.63
2018-02-10T10:37:00.459Z,12.59
2018-02-10T10:39:27.973Z,12.53
2018-02-10T10:41:55.494Z,12.47
2018-02-10T10:44:23.038Z,12.38
2018-02-10T10:46:50.550Z,12.28
2018-02-10T10:49:18.070Z,12.17
2018-02-10T10:51:45.609Z,12.05
2018-02-10T10:54:13.145Z,11.99
2018-02-10T10:56:40.844Z,11.85
2018-02-10T10:59:08.363Z,11.78
2018-02-10T11:01:35.982Z,11.73
2018-02-10T11:04:03.530Z,11.77
2018-02-10T11:06:31.054Z,11.83
2018-02-10T11:08:58.629Z,11.89
2018-02-10T11:11:26.149Z,11.95
2018-02-10T11:13:53.709Z,11.92
2018-02-10T11:16:52.483Z,11.95
2018-02-10T11:19:20.474Z,11.94
2018-02-10T11:21:48.841Z,11.89
2018-02-10T11:26:57.627Z,11.85
2018-02-10T11:29:27.006Z,11.82
2018-02-10T11:31:54.546Z,11.82
2018-02-10T11:34:22.086Z,11.87
2018-02-10T11:36:49.706Z,11.85
2018-02-10T11:39:17.236Z,12.01
2018-02-10T11:41:44.795Z,12.10
2018-02-10T11:44:12.426Z,12.16
2018-02-10T11:46:39.957Z,12.17
2018-02-10T11:49:07.488Z,12.16
2018-02-10T11:51:35.079Z,12.20
2018-02-10T11:54:02.640Z,12.16
2018-02-10T11:56:30.254Z,12.10
2018-02-10T11:58:57.883Z,12.05
2018-02-10T12:01:25.441Z,11.97
2018-02-10T12:03:52.982Z,11.97
2018-02-10T12:06:21.915Z,11.96
2018-02-10T12:08:49.494Z,11.92
2018-02-10T12:11:17.014Z,11.92
2018-02-10T12:13:44.609Z,11.84
2018-02-10T12:16:12.119Z,11.80
2018-02-10T12:18:39.686Z,11.75
2018-02-10T12:21:09.879Z,11.73
2018-02-10T12:23:37.396Z,11.73
2018-02-10T12:26:05.269Z,11.72
2018-02-10T12:28:33.137Z,11.72
2018-02-10T12:31:00.711Z,11.65
2018-02-10T12:33:28.267Z,11.63
2018-02-10T12:35:55.796Z,11.65
2018-02-10T12:38:23.330Z,11.66
2018-02-10T12:40:51.056Z,11.68
2018-02-10T12:43:18.734Z,11.66
2018-02-10T12:45:46.274Z,11.64
2018-02-10T12:48:19.433Z,11.60
2018-02-10T12:50:46.945Z,11.49
2018-02-10T12:53:14.484Z,11.47
2018-02-10T12:55:42.005Z,11.44
2018-02-10T12:58:09.551Z,11.39
2018-02-10T13:00:37.116Z,11.39
2018-02-10T13:03:04.667Z,11.38
2018-02-10T13:05:32.194Z,11.34
2018-02-10T13:07:59.717Z,11.31
2018-02-10T13:10:27.253Z,11.29
2018-02-10T13:12:54.792Z,11.26
2018-02-10T13:15:22.319Z,11.23
2018-02-10T13:17:49.864Z,11.20
2018-02-10T13:20:17.414Z,11.14
2018-02-10T13:22:44.952Z,11.12
2018-02-10T13:25:12.497Z,11.14
2018-02-10T13:27:40.641Z,11.11
2018-02-10T13:30:08.297Z,11.12
2018-02-10T13:32:36.135Z,11.16
2018-02-10T13:35:03.700Z,11.23
2018-02-10T13:37:31.213Z,11.25
2018-02-10T13:39:59.200Z,11.31
2018-02-10T13:42:26.992Z,11.31
2018-02-10T13:44:54.519Z,11.33
2018-02-10T13:47:22.047Z,11.28
2018-02-10T13:49:49.585Z,11.23
2018-02-10T13:52:17.451Z,11.28
2018-02-10T13:54:45.004Z,11.22
2018-02-10T13:57:12.517Z,11.12
2018-02-10T13:59:40.045Z,11.04
2018-02-10T14:02:07.693Z,10.97
2018-02-10T14:04:36.087Z,10.93
2018-02-10T14:07:03.631Z,10.88
2018-02-10T14:09:31.176Z,10.83
2018-02-10T14:11:58.704Z,10.81
2018-02-10T14:14:26.781Z,10.82
2018-02-10T14:16:54.311Z,10.75
2018-02-10T14:19:21.852Z,10.70
2018-02-10T14:21:49.869Z,10.66
2018-02-10T14:24:17.397Z,10.60
2018-02-10T14:26:45.786Z,10.52
2018-02-10T14:29:13.597Z,10.41
2018-02-10T14:31:41.138Z,11.07
2018-02-10T14:34:08.727Z,11.09
2018-02-10T14:36:37.645Z,10.94
2018-02-10T14:39:05.204Z,10.80
2018-02-10T14:41:32.783Z,10.65
2018-02-10T14:44:00.320Z,10.59
2018-02-10T14:46:27.882Z,10.45
2018-02-10T14:48:55.409Z,10.29
2018-02-10T14:51:22.942Z,10.19
2018-02-10T14:53:51.282Z,10.18
2018-02-10T14:56:18.876Z,10.03
2018-02-10T14:58:46.424Z,9.82
2018-02-10T15:01:13.962Z,9.87
2018-02-10T15:03:42.528Z,9.72
2018-02-10T15:06:10.063Z,9.65
2018-02-10T15:08:37.640Z,9.15
2018-02-10T15:11:06.105Z,9.44
2018-02-10T15:13:33.684Z,9.24
2018-02-10T15:16:02.022Z,9.08
2018-02-10T15:18:29.581Z,9.05
2018-02-10T15:20:57.381Z,9.06
2018-02-10T15:23:24.924Z,9.04
2018-02-10T15:25:52.466Z,8.90
2018-02-10T15:28:20.023Z,8.85
2018-02-10T15:30:59.659Z,8.77
2018-02-10T15:33:39.140Z,8.72
2018-02-10T15:36:07.031Z,8.68
2018-02-10T15:38:34.717Z,8.61
2018-02-10T15:41:02.696Z,8.50
2018-02-10T15:43:30.434Z,8.55
2018-02-10T15:45:57.978Z,8.52
2018-02-10T15:48:25.598Z,8.50
2018-02-10T15:50:53.144Z,8.43
2018-02-10T15:53:20.734Z,8.37
2018-02-10T15:55:48.262Z,8.34
2018-02-10T15:58:16.197Z,8.35
2018-02-10T16:00:43.823Z,8.37
2018-02-10T16:03:12.029Z,8.33
2018-02-10T16:05:39.577Z,8.27
2018-02-10T16:08:07.565Z,8.24
2018-02-10T16:10:35.878Z,8.20
2018-02-10T16:13:03.468Z,8.23
2018-02-10T16:15:31.017Z,8.24
2018-02-10T16:17:59.143Z,8.08
2018-02-10T16:20:27.182Z,8.22
2018-02-10T16:22:54.710Z,8.23
2018-02-10T16:25:22.674Z,8.22
2018-02-10T16:27:50.211Z,8.17
2018-02-10T16:30:18.148Z,8.21
2018-02-10T16:32:45.702Z,8.15
2018-02-10T16:35:13.255Z,8.17
2018-02-10T16:37:40.807Z,8.19
2018-02-10T16:40:09.002Z,7.89
2018-02-10T16:42:37.486Z,8.14
2018-02-10T16:45:05.014Z,8.18
2018-02-10T16:47:32.549Z,8.15
2018-02-10T16:50:00.912Z,8.14
2018-02-10T16:52:28.749Z,8.10
2018-02-10T16:54:56.606Z,8.15
2018-02-10T16:57:24.164Z,8.13
2018-02-10T16:59:51.721Z,8.11
2018-02-10T17:02:19.420Z,8.16
2018-02-10T17:04:46.959Z,8.15
2018-02-10T17:07:14.493Z,8.14
2018-02-10T17:09:42.429Z,8.14
2018-02-10T17:12:09.975Z,8.06
2018-02-10T17:14:37.542Z,8.14
2018-02-10T17:17:05.211Z,8.14
2018-02-10T17:19:33.097Z,8.14
2018-02-10T17:22:00.880Z,8.01
2018-02-10T17:24:28.406Z,8.04
2018-02-10T17:26:55.965Z,8.02
2018-02-10T17:29:23.556Z,7.86
2018-02-10T17:31:51.117Z,7.97
2018-02-10T17:34:18.654Z,7.82
2018-02-10T17:36:46.445Z,7.92
2018-02-10T17:39:14.311Z,7.91
2018-02-10T17:41:42.729Z,7.85
2018-02-10T17:44:10.580Z,7.81
2018-02-10T17:46:38.754Z,7.82
2018-02-10T17:49:06.289Z,7.79
2018-02-10T17:51:34.041Z,7.81
2018-02-10T17:54:01.566Z,7.81
2018-02-10T17:56:30.063Z,7.81
2018-02-10T17:58:57.640Z,7.81
2018-02-10T18:01:25.255Z,7.81
2018-02-10T18:03:53.197Z,7.70
2018-02-10T18:06:20.731Z,7.80
2018-02-10T18:08:48.508Z,7.81
2018-02-10T18:11:16.928Z,7.81
2018-02-10T18:13:44.777Z,7.83
2018-02-10T18:16:12.436Z,7.80
2018-02-10T18:18:40.018Z,7.79
2018-02-10T18:21:07.538Z,7.71
2018-02-10T18:23:35.089Z,7.73
2018-02-10T18:26:05.252Z,7.70
2018-02-10T18:28:33.285Z,7.67
2018-02-10T18:31:00.910Z,7.71
2018-02-10T18:33:29.674Z,7.69
2018-02-10T18:35:58.986Z,7.71
2018-02-10T18:38:26.573Z,7.73
2018-02-10T18:41:07.588Z,7.73
2018-02-10T18:43:35.279Z,7.69
2018-02-10T18:46:03.186Z,7.57
2018-02-10T18:48:30.809Z,7.62
2018-02-10T18:50:58.644Z,7.36
2018-02-10T18:53:38.776Z,7.58
2018-02-10T18:59:06.332Z,7.53
2018-02-10T19:01:42.495Z,7.49
2018-02-10T19:04:10.174Z,7.46
2018-02-10T19:06:37.816Z,7.47
2018-02-10T19:09:05.642Z,7.43
2018-02-10T19:11:33.182Z,7.42
2018-02-10T19:14:01.591Z,7.41
2018-02-10T19:16:29.736Z,7.37
2018-02-10T19:18:58.132Z,7.35
2018-02-10T19:21:25.753Z,7.36
2018-02-10T19:23:53.587Z,7.39
2018-02-10T19:26:21.134Z,7.37
2018-02-10T19:28:48.926Z,7.36
2018-02-10T19:31:16.561Z,7.34
2018-02-10T19:33:44.132Z,7.33
2018-02-10T19:36:11.930Z,7.33
2018-02-10T19:38:39.545Z,7.32
2018-02-10T19:41:07.876Z,7.18
2018-02-10T19:43:35.693Z,7.27
2018-02-10T19:46:03.685Z,7.27
2018-02-10T19:48:31.983Z,7.25
2018-02-10T19:51:00.590Z,7.15
2018-02-10T19:53:28.197Z,7.16
2018-02-10T19:55:57.172Z,7.14
2018-02-10T19:58:24.936Z,7.13
2018-02-10T20:00:52.558Z,7.13
2018-02-10T20:03:21.121Z,7.10
2018-02-10T20:05:48.678Z,6.99
2018-02-10T20:08:16.229Z,7.01
2018-02-10T20:10:43.784Z,7.02
2018-02-10T20:13:11.687Z,7.03
2018-02-10T20:15:40.169Z,6.99
2018-02-10T20:18:10.686Z,6.99
2018-02-10T20:20:38.868Z,6.97
2018-02-10T20:23:06.458Z,6.97
2018-02-10T20:25:35.098Z,6.97
2018-02-10T20:30:41.930Z,6.92
2018-02-10T20:33:29.488Z,6.88
2018-02-10T20:35:59.711Z,6.91
2018-02-10T20:38:30.324Z,6.90
2018-02-10T20:40:57.849Z,6.89
2018-02-10T20:43:32.632Z,6.87
2018-02-10T20:46:13.571Z,6.88
2018-02-10T20:51:44.631Z,6.89
2018-02-10T20:54:12.477Z,7.76
2018-02-10T20:56:40.385Z,7.85
2018-02-10T20:59:08.998Z,7.85
2018-02-10T21:01:37.504Z,7.87
2018-02-10T21:04:05.097Z,7.87
2018-02-10T21:06:32.969Z,7.87
2018-02-10T21:09:00.485Z,7.88
2018-02-10T21:11:28.082Z,7.89
2018-02-10T21:13:56.540Z,7.90
2018-02-10T21:16:24.301Z,7.91
2018-02-10T21:18:53.410Z,7.83
2018-02-10T21:21:20.968Z,7.94
2018-02-10T21:23:48.529Z,7.96
2018-02-10T21:26:16.276Z,7.98
2018-02-10T21:28:43.809Z,8.00
2018-02-10T21:31:11.353Z,8.03
2018-02-10T21:33:38.893Z,7.97
2018-02-10T21:36:06.647Z,8.05
2018-02-10T21:38:34.284Z,8.05
2018-02-10T21:41:02.000Z,8.07
2018-02-10T21:43:29.597Z,8.07
2018-02-10T21:45:57.534Z,7.92
2018-02-10T21:48:27.229Z,8.09
2018-02-10T21:50:54.774Z,8.10
2018-02-10T21:53:24.557Z,8.10
2018-02-10T21:55:54.010Z,8.10
2018-02-10T21:58:21.950Z,8.12
2018-02-10T22:00:49.787Z,8.14
2018-02-10T22:03:18.958Z,8.13
2018-02-10T22:05:46.514Z,8.14
2018-02-10T22:08:14.318Z,8.14
2018-02-10T22:10:41.859Z,8.15
2018-02-10T22:13:09.519Z,8.15
2018-02-10T22:15:37.055Z,8.17
2018-02-10T22:18:04.619Z,8.17
2018-02-10T22:20:32.151Z,8.18
2018-02-10T22:22:59.717Z,8.19
2018-02-10T22:25:27.272Z,8.20
2018-02-10T22:27:54.821Z,8.20
2018-02-10T22:30:22.418Z,8.20
2018-02-10T22:32:50.314Z,8.20
2018-02-10T22:35:18.070Z,8.20
2018-02-10T22:37:45.927Z,8.21
2018-02-10T22:40:13.467Z,8.20
2018-02-10T22:42:59.525Z,8.22
2018-02-10T22:45:27.068Z,8.23
2018-02-10T22:47:54.618Z,8.23
2018-02-10T22:50:52.285Z,8.23
2018-02-10T22:53:20.162Z,8.23
2018-02-10T22:55:47.728Z,8.25
2018-02-10T22:58:15.292Z,8.27
2018-02-10T23:00:43.056Z,8.28
2018-02-10T23:03:16.741Z,8.28
2018-02-10T23:05:44.480Z,8.30
2018-02-10T23:08:12.005Z,8.30
2018-02-10T23:10:45.452Z,8.31
2018-02-10T23:13:13.062Z,8.32
2018-02-10T23:15:40.603Z,8.32
2018-02-10T23:18:08.528Z,8.30
2018-02-10T23:20:36.214Z,8.32
2018-02-10T23:23:03.850Z,8.32
2018-02-10T23:25:31.653Z,8.32
2018-02-10T23:27:59.208Z,8.33
2018-02-10T23:30:26.785Z,8.25
2018-02-10T23:32:54.326Z,8.33
2018-02-10T23:35:39.561Z,8.33
2018-02-10T23:38:07.116Z,8.32
2018-02-10T23:40:34.912Z,8.32
2018-02-10T23:43:02.463Z,8.31
2018-02-10T23:45:30.012Z,8.30
2018-02-10T23:47:57.592Z,8.30
2018-02-10T23:50:25.134Z,8.22
2018-02-10T23:52:53.058Z,8.29
2018-02-10T23:55:20.687Z,8.30
2018-02-10T23:57:48.556Z,8.30
